Etusivu
METAR-TAF:

METAR-TAF

Lentoasemat :

Sheboygan County Memorial Airport

Sheboygan, Wisconsin, Yhdysvallat

Leveyspiiri: 43-46-35N, Pituuspiiri: 087-50-59W, korkeus merenpinnasta: 228 m

Tämänhetkinen sää

Tämä raportti tehtiin 38 minuuttia sitten, kello 08.53 UTC
Tuuli 5 kn lännestä/luoteesta
Lämpötila -14°C
Kosteus 66%
Ilmanpaine 1032 hPa
Näkyvyys: 16.1 km
selkeää

METAR: KSBM 190853Z AUTO 29005KT 10SM CLR M14/M19 A3047 RMK AO2 SLP333 T11391194 51024

Aika: 03:31 (09:31 UTC)


TAF: puuttuu

Säähavainnot ja -ennusteet yli 4000 lentoasemalta (METAR- ja TAF-raportit).

Käytössä olevat sääasemat on merkitty karttaan keltaisilla ja punaisilla pisteillä.

Aseta hiiri pisteen päälle nähdäksesi sääaseman nimen.

Klikkaa sitten nähdäksesi säähavainnot ja -ennusteet.

Kartan vaihtaminen: klikkaa mustalla rastilla varustettuja vihreitä pisteitä, niin voit zoomata sisään; viivalla varustettua vihreää pistettä, niin voit zoomata ulos tai vihreitä nuolia, niin pääset viereisille kartoille.


METAR-TAF: